createdAt,value
2022-11-29T00:00:49.252Z,100943.59
2022-11-29T00:03:16.428Z,100933.09
2022-11-29T00:05:42.933Z,100946.88
2022-11-29T00:08:09.405Z,100951.16
2022-11-29T00:10:37.403Z,100942.28
2022-11-29T00:13:04.406Z,100948.34
2022-11-29T00:15:34.949Z,100944.09
2022-11-29T00:18:01.397Z,100942.13
2022-11-29T00:20:27.793Z,100944.91
2022-11-29T00:22:54.187Z,100950.00
2022-11-29T00:25:20.623Z,100938.69
2022-11-29T00:27:47.107Z,100938.34
2022-11-29T00:30:14.108Z,100935.25
2022-11-29T00:32:40.530Z,100935.72
2022-11-29T00:35:09.807Z,100942.63
2022-11-29T00:37:36.889Z,100940.97
2022-11-29T00:40:04.632Z,100943.75
2022-11-29T00:42:31.125Z,100945.25
2022-11-29T00:44:57.678Z,100947.69
2022-11-29T00:47:24.136Z,100953.13
2022-11-29T00:49:50.608Z,100948.53
2022-11-29T00:52:16.977Z,100950.31
2022-11-29T00:54:43.843Z,100945.91
2022-11-29T00:57:10.397Z,100946.22
2022-11-29T00:59:36.832Z,100955.56
2022-11-29T01:02:03.251Z,100948.53
2022-11-29T01:04:29.692Z,100949.50
2022-11-29T01:06:56.120Z,100956.41
2022-11-29T01:09:22.540Z,100945.91
2022-11-29T01:11:49.610Z,100951.16
2022-11-29T01:14:16.385Z,100953.59
2022-11-29T01:16:42.840Z,100959.50
2022-11-29T01:19:09.305Z,100952.47
2022-11-29T01:21:35.846Z,100952.47
2022-11-29T01:24:02.720Z,100958.53
2022-11-29T01:26:30.921Z,100959.69
2022-11-29T01:28:59.087Z,100962.13
2022-11-29T01:31:31.686Z,100957.72
2022-11-29T01:34:00.807Z,100958.53
2022-11-29T01:36:27.585Z,100949.19
2022-11-29T01:38:54.023Z,100957.22
2022-11-29T01:41:23.729Z,100963.31
2022-11-29T01:44:26.913Z,100962.31
2022-11-29T01:46:54.618Z,100958.84
2022-11-29T01:49:41.081Z,100963.97
2022-11-29T01:52:19.293Z,100967.53
2022-11-29T01:54:51.081Z,100967.72
2022-11-29T01:57:19.230Z,100974.44
2022-11-29T01:59:49.630Z,100976.25
2022-11-29T02:02:22.000Z,100976.41
2022-11-29T02:04:49.549Z,100981.66
2022-11-29T02:07:16.443Z,100973.78
2022-11-29T02:09:42.968Z,100978.88
2022-11-29T02:12:27.896Z,100978.22
2022-11-29T02:15:09.869Z,100979.03
2022-11-29T02:17:52.335Z,100984.28
2022-11-29T02:20:49.561Z,100983.28
2022-11-29T02:23:48.145Z,100985.25
2022-11-29T02:26:20.616Z,100987.72
2022-11-29T02:29:11.676Z,100988.53
2022-11-29T02:31:50.333Z,100986.56
2022-11-29T02:34:54.338Z,100996.09
2022-11-29T02:37:27.423Z,100992.81
2022-11-29T02:39:59.772Z,100996.91
2022-11-29T02:42:56.548Z,100992.81
2022-11-29T02:45:34.673Z,100989.19
2022-11-29T02:48:23.313Z,100991.16
2022-11-29T02:51:05.647Z,100993.13
2022-11-29T02:53:56.382Z,100998.38
2022-11-29T02:56:34.325Z,101001.47
2022-11-29T02:59:27.172Z,101008.88
2022-11-29T03:02:11.721Z,100999.03
2022-11-29T03:04:47.526Z,101002.78
2022-11-29T03:07:43.463Z,101004.75
2022-11-29T03:10:17.829Z,100999.84
2022-11-29T03:12:53.329Z,101011.00
2022-11-29T03:15:29.049Z,101011.84
2022-11-29T03:17:58.487Z,101006.59
2022-11-29T03:20:46.098Z,101012.16
2022-11-29T03:23:28.460Z,101020.69
2022-11-29T03:26:07.430Z,101019.06
2022-11-29T03:28:43.084Z,101020.69
2022-11-29T03:31:34.213Z,101019.72
2022-11-29T03:34:15.814Z,101022.34
2022-11-29T03:37:06.180Z,101026.94
2022-11-29T03:39:57.391Z,101027.72
2022-11-29T03:42:31.352Z,101034.63
2022-11-29T03:45:34.743Z,101032.97
2022-11-29T03:48:07.200Z,101035.47
2022-11-29T03:50:41.582Z,101044.81
2022-11-29T03:53:19.726Z,101041.19
2022-11-29T03:55:52.384Z,101039.41
2022-11-29T03:58:32.308Z,101037.75
2022-11-29T04:01:11.178Z,101035.94
2022-11-29T04:03:59.352Z,101044.66
2022-11-29T04:06:28.769Z,101050.06
2022-11-29T04:09:08.956Z,101043.81
2022-11-29T04:11:58.800Z,101048.22
2022-11-29T04:14:41.295Z,101051.69
2022-11-29T04:17:35.278Z,101053.47
2022-11-29T04:20:40.377Z,101057.75
2022-11-29T04:23:32.457Z,101065.63
2022-11-29T04:26:09.198Z,101067.44
2022-11-29T04:28:59.891Z,101073.34
2022-11-29T04:31:32.411Z,101071.06
2022-11-29T04:33:58.808Z,101072.03
2022-11-29T04:36:57.074Z,101073.00
2022-11-29T04:39:41.728Z,101073.00
2022-11-29T04:42:23.000Z,101078.56
2022-11-29T04:44:59.029Z,101076.13
2022-11-29T04:47:46.393Z,101076.44
2022-11-29T04:50:37.424Z,101082.50
2022-11-29T04:53:13.011Z,101077.09
2022-11-29T04:55:52.395Z,101082.16
2022-11-29T04:58:27.261Z,101085.13
2022-11-29T05:01:00.858Z,101087.41
2022-11-29T05:03:44.889Z,101098.75
2022-11-29T05:06:19.611Z,101101.53
2022-11-29T05:08:52.484Z,101105.94
2022-11-29T05:11:37.209Z,101113.66
2022-11-29T05:14:37.613Z,101119.06
2022-11-29T05:17:03.968Z,101117.28
2022-11-29T05:19:55.472Z,101120.03
2022-11-29T05:22:29.131Z,101115.78
2022-11-29T05:25:02.316Z,101123.47
2022-11-29T05:27:48.698Z,101125.16
2022-11-29T05:30:21.177Z,101133.16
2022-11-29T05:33:09.579Z,101131.53
2022-11-29T05:35:53.365Z,101133.97
2022-11-29T05:38:29.084Z,101136.78
2022-11-29T05:41:13.776Z,101141.34
2022-11-29T05:44:14.284Z,101144.63
2022-11-29T05:46:56.802Z,101143.47
2022-11-29T05:49:32.465Z,101147.91
2022-11-29T05:52:17.572Z,101142.50
2022-11-29T05:55:05.893Z,101149.34
2022-11-29T05:57:46.668Z,101154.13
2022-11-29T06:00:14.797Z,101153.63
2022-11-29T06:02:54.005Z,101159.53
2022-11-29T06:05:31.737Z,101157.06
2022-11-29T06:08:05.203Z,101169.34
2022-11-29T06:10:36.220Z,101174.59
2022-11-29T06:13:29.443Z,101178.06
2022-11-29T06:16:14.149Z,101179.69
2022-11-29T06:18:46.537Z,101184.44
2022-11-29T06:21:26.448Z,101188.84
2022-11-29T06:24:25.863Z,101195.75
2022-11-29T06:27:13.738Z,101199.34
2022-11-29T06:30:01.831Z,101196.56
2022-11-29T06:32:54.512Z,101202.13
2022-11-29T06:35:29.716Z,101200.31
2022-11-29T06:37:58.429Z,101208.34
2022-11-29T06:40:25.354Z,101207.66
2022-11-29T06:42:51.964Z,101211.28
2022-11-29T06:45:18.794Z,101216.53
2022-11-29T06:48:06.808Z,101217.19
2022-11-29T06:50:36.168Z,101216.22
2022-11-29T06:53:16.321Z,101212.09
2022-11-29T06:56:06.424Z,101218.31
2022-11-29T06:58:42.885Z,101221.25
2022-11-29T07:01:18.335Z,101220.28
2022-11-29T07:03:50.741Z,101222.91
2022-11-29T07:06:28.562Z,101221.91
2022-11-29T07:09:24.281Z,101221.25
2022-11-29T07:11:50.908Z,101225.84
2022-11-29T07:14:17.538Z,101230.91
2022-11-29T07:17:12.526Z,101233.31
2022-11-29T07:19:52.665Z,101241.19
2022-11-29T07:22:47.960Z,101247.59
2022-11-29T07:25:20.340Z,101240.53
2022-11-29T07:27:49.672Z,101248.09
2022-11-29T07:30:20.633Z,101251.56
2022-11-29T07:33:08.880Z,101255.31
2022-11-29T07:35:40.942Z,101260.03
2022-11-29T07:38:21.440Z,101265.78
2022-11-29T07:40:56.936Z,101262.19
2022-11-29T07:43:45.340Z,101268.25
2022-11-29T07:46:11.800Z,101268.13
2022-11-29T07:48:38.260Z,101274.03
2022-11-29T07:51:04.723Z,101276.78
2022-11-29T07:53:31.239Z,101282.88
2022-11-29T07:55:58.416Z,101278.91
2022-11-29T07:58:25.151Z,101279.28
2022-11-29T08:00:51.593Z,101282.88
2022-11-29T08:03:18.071Z,101276.78
2022-11-29T08:05:47.941Z,101282.88
2022-11-29T08:08:15.430Z,101278.06
2022-11-29T08:10:41.841Z,101276.13
2022-11-29T08:13:08.231Z,101289.09
2022-11-29T08:15:35.059Z,101290.88
2022-11-29T08:18:02.725Z,101292.84
2022-11-29T08:20:29.110Z,101290.88
2022-11-29T08:22:59.563Z,101299.72
2022-11-29T08:25:27.646Z,101296.66
2022-11-29T08:27:54.743Z,101296.34
2022-11-29T08:30:24.716Z,101298.81
2022-11-29T08:32:52.167Z,101295.69
2022-11-29T08:35:21.016Z,101303.22
2022-11-29T08:37:50.279Z,101306.97
2022-11-29T08:40:18.008Z,101310.13
2022-11-29T08:42:44.510Z,101310.63
2022-11-29T08:45:11.877Z,101315.38
2022-11-29T08:47:40.205Z,101317.34
2022-11-29T08:50:08.379Z,101314.38
2022-11-29T08:52:55.508Z,101312.59
2022-11-29T08:55:24.908Z,101318.13
2022-11-29T08:57:52.058Z,101325.53
2022-11-29T09:00:21.186Z,101328.34
2022-11-29T09:02:48.748Z,101329.47
2022-11-29T09:05:15.913Z,101333.88
2022-11-29T09:07:43.593Z,101335.03
2022-11-29T09:10:11.212Z,101348.13
2022-11-29T09:12:39.119Z,101345.97
2022-11-29T09:15:07.771Z,101356.59
2022-11-29T09:17:34.249Z,101344.75
2022-11-29T09:20:00.945Z,101361.53
2022-11-29T09:22:27.535Z,101358.25
2022-11-29T09:24:53.942Z,101363.22
2022-11-29T09:27:20.341Z,101375.25
2022-11-29T09:29:47.007Z,101375.25
2022-11-29T09:32:13.457Z,101380.88
2022-11-29T09:34:42.128Z,101378.56
2022-11-29T09:37:08.720Z,101382.00
2022-11-29T09:39:35.174Z,101388.75
2022-11-29T09:42:17.117Z,101385.81
2022-11-29T09:44:43.630Z,101392.41
2022-11-29T09:47:22.361Z,101388.00
2022-11-29T09:50:03.859Z,101395.69
2022-11-29T09:52:42.425Z,101400.81
2022-11-29T09:55:27.686Z,101393.16
2022-11-29T09:57:58.173Z,101393.31
2022-11-29T10:00:25.998Z,101394.34
2022-11-29T10:03:03.239Z,101395.13
2022-11-29T10:05:41.507Z,101397.44
2022-11-29T10:08:25.992Z,101401.72
2022-11-29T10:11:06.808Z,101398.94
2022-11-29T10:13:35.533Z,101393.69
2022-11-29T10:16:23.734Z,101394.72
2022-11-29T10:18:58.725Z,101395.91
2022-11-29T10:21:32.473Z,101397.69
2022-11-29T10:24:04.885Z,101401.81
2022-11-29T10:26:35.217Z,101400.88
2022-11-29T10:29:02.482Z,101399.38
2022-11-29T10:31:34.889Z,101399.66
2022-11-29T10:34:11.711Z,101400.50
2022-11-29T10:36:55.085Z,101393.81
2022-11-29T10:39:28.672Z,101389.38
2022-11-29T10:41:57.929Z,101387.75
2022-11-29T10:44:25.297Z,101391.72
2022-11-29T10:46:53.147Z,101394.34
2022-11-29T10:49:23.568Z,101383.22
2022-11-29T10:51:50.005Z,101391.25
2022-11-29T10:54:38.308Z,101390.41
2022-11-29T10:57:13.174Z,101386.75
2022-11-29T10:59:39.698Z,101395.66
2022-11-29T11:02:18.739Z,101394.38
2022-11-29T11:04:48.061Z,101396.84
2022-11-29T11:07:35.540Z,101397.41
2022-11-29T11:10:05.625Z,101393.66
2022-11-29T11:12:34.798Z,101390.03
2022-11-29T11:15:26.618Z,101396.63
2022-11-29T11:17:59.315Z,101397.63
2022-11-29T11:20:28.827Z,101401.09
2022-11-29T11:23:02.090Z,101403.53
2022-11-29T11:25:35.233Z,101394.16
2022-11-29T11:28:13.600Z,101398.59
2022-11-29T11:30:40.242Z,101405.50
2022-11-29T11:33:20.658Z,101402.41
2022-11-29T11:36:08.806Z,101398.50
2022-11-29T11:38:40.896Z,101395.72
2022-11-29T11:41:18.757Z,101392.91
2022-11-29T11:43:56.178Z,101406.22
2022-11-29T11:46:22.908Z,101403.41
2022-11-29T11:48:51.250Z,101413.94
2022-11-29T11:51:24.690Z,101414.09
2022-11-29T11:53:56.152Z,101404.25
2022-11-29T11:56:24.181Z,101413.25
2022-11-29T11:58:54.430Z,101403.75
2022-11-29T12:01:37.280Z,101402.09
2022-11-29T12:04:11.432Z,101406.38
2022-11-29T12:06:46.606Z,101401.09
2022-11-29T12:09:42.290Z,101405.53
2022-11-29T12:12:25.968Z,101414.50
2022-11-29T12:15:28.741Z,101418.41
2022-11-29T12:18:04.465Z,101418.84
2022-11-29T12:20:36.966Z,101412.16
2022-11-29T12:23:23.903Z,101412.03
2022-11-29T12:26:48.932Z,101420.88
2022-11-29T12:29:20.072Z,101428.28
2022-11-29T12:31:55.737Z,101431.75
2022-11-29T12:34:43.186Z,101442.25
2022-11-29T12:37:29.099Z,101438.63
2022-11-29T12:40:22.502Z,101447.88
2022-11-29T12:42:55.002Z,101450.19
2022-11-29T12:45:40.582Z,101450.00
2022-11-29T12:48:16.233Z,101452.28
2022-11-29T12:50:52.162Z,101452.13
2022-11-29T12:53:31.263Z,101459.84
2022-11-29T12:56:18.825Z,101457.38
2022-11-29T12:59:01.145Z,101462.19
2022-11-29T13:02:19.859Z,101455.94
2022-11-29T13:04:59.577Z,101459.84
2022-11-29T13:08:05.069Z,101463.31
2022-11-29T13:10:55.725Z,101462.84
2022-11-29T13:13:36.167Z,101465.31
2022-11-29T13:16:30.797Z,101464.50
2022-11-29T13:18:57.654Z,101468.31
2022-11-29T13:21:51.220Z,101468.31
2022-11-29T13:24:30.765Z,101464.81
2022-11-29T13:26:58.154Z,101471.09
2022-11-29T13:29:26.050Z,101472.22
2022-11-29T13:31:52.816Z,101472.53
2022-11-29T13:34:29.617Z,101481.59
2022-11-29T13:37:15.381Z,101482.41
2022-11-29T13:39:52.033Z,101486.84
2022-11-29T13:42:38.911Z,101477.66
2022-11-29T13:45:31.577Z,101475.97
2022-11-29T13:48:00.318Z,101474.19
2022-11-29T13:50:43.786Z,101478.78
2022-11-29T13:53:19.253Z,101480.84
2022-11-29T13:56:02.460Z,101483.34
2022-11-29T13:58:28.827Z,101489.94
2022-11-29T14:01:09.405Z,101482.72
2022-11-29T14:03:44.977Z,101484.53
2022-11-29T14:06:21.048Z,101488.16
2022-11-29T14:11:42.749Z,101486.56
2022-11-29T14:14:17.808Z,101488.22
2022-11-29T14:16:44.127Z,101489.88
2022-11-29T14:19:10.547Z,101485.88
2022-11-29T14:22:01.797Z,101493.41
2022-11-29T14:24:37.704Z,101497.53
2022-11-29T14:27:10.187Z,101494.91
2022-11-29T14:29:48.814Z,101493.25
2022-11-29T14:32:23.637Z,101503.75
2022-11-29T14:35:11.313Z,101508.03
2022-11-29T14:37:43.823Z,101504.19
2022-11-29T14:40:40.424Z,101500.28
2022-11-29T14:43:24.761Z,101516.38
2022-11-29T14:46:15.565Z,101519.13
2022-11-29T14:48:47.090Z,101517.31
2022-11-29T14:51:19.197Z,101515.66
2022-11-29T14:53:50.973Z,101521.50
2022-11-29T14:56:29.731Z,101526.44
2022-11-29T14:59:33.603Z,101521.25
2022-11-29T15:02:04.970Z,101523.59
2022-11-29T15:04:35.163Z,101526.38
2022-11-29T15:07:03.530Z,101522.53
2022-11-29T15:09:33.449Z,101529.13
2022-11-29T15:12:07.871Z,101533.59
2022-11-29T15:14:51.391Z,101531.09
2022-11-29T15:17:40.642Z,101533.59
2022-11-29T15:20:48.317Z,101529.28
2022-11-29T15:23:18.458Z,101532.22
2022-11-29T15:25:52.463Z,101535.75
2022-11-29T15:28:27.558Z,101542.47
2022-11-29T15:31:05.168Z,101544.41
2022-11-29T15:33:34.215Z,101541.78
2022-11-29T15:36:06.981Z,101547.97
2022-11-29T15:38:53.964Z,101548.91
2022-11-29T15:41:34.389Z,101552.38
2022-11-29T15:44:04.829Z,101560.25
2022-11-29T15:46:33.414Z,101562.78
2022-11-29T15:49:16.266Z,101558.34
2022-11-29T15:51:42.722Z,101558.50
2022-11-29T15:54:21.025Z,101563.66
2022-11-29T15:56:56.229Z,101566.13
2022-11-29T15:59:38.884Z,101573.84
2022-11-29T16:02:26.303Z,101577.59
2022-11-29T16:04:59.842Z,101576.34
2022-11-29T16:07:32.054Z,101576.38
2022-11-29T16:10:04.025Z,101582.13
2022-11-29T16:12:30.630Z,101586.56
2022-11-29T16:14:59.422Z,101584.75
2022-11-29T16:17:35.216Z,101585.47
2022-11-29T16:20:13.747Z,101583.97
2022-11-29T16:22:40.429Z,101584.66
2022-11-29T16:25:16.985Z,101588.81
2022-11-29T16:27:43.672Z,101588.38
2022-11-29T16:30:27.823Z,101584.63
2022-11-29T16:32:58.140Z,101584.47
2022-11-29T16:35:27.921Z,101580.22
2022-11-29T16:37:55.520Z,101585.47
2022-11-29T16:40:32.068Z,101582.00
2022-11-29T16:43:04.625Z,101576.59
2022-11-29T16:45:36.657Z,101583.28
2022-11-29T16:48:27.672Z,101589.22
2022-11-29T16:51:15.107Z,101587.97
2022-11-29T16:53:43.804Z,101590.47
2022-11-29T16:56:12.483Z,101591.56
2022-11-29T16:59:21.095Z,101582.44
2022-11-29T17:01:28.585Z,101583.84
2022-11-29T17:03:57.569Z,101585.66
2022-11-29T17:06:25.362Z,101577.78
2022-11-29T17:08:53.373Z,101580.25
2022-11-29T17:11:20.169Z,101580.94
2022-11-29T17:13:47.525Z,101586.44
2022-11-29T17:16:16.139Z,101580.44
2022-11-29T17:18:43.449Z,101583.88
2022-11-29T17:21:17.594Z,101578.09
2022-11-29T17:23:44.039Z,101587.22
2022-11-29T17:26:10.492Z,101583.78
2022-11-29T17:28:36.945Z,101593.97
2022-11-29T17:31:10.482Z,101591.50
2022-11-29T17:33:36.941Z,101583.91
2022-11-29T17:36:08.135Z,101583.91
2022-11-29T17:38:35.283Z,101576.34
2022-11-29T17:41:09.355Z,101588.81
2022-11-29T17:43:36.540Z,101590.75
2022-11-29T17:46:17.119Z,101590.75
2022-11-29T17:48:46.238Z,101599.84
2022-11-29T17:51:50.161Z,101595.31
2022-11-29T17:54:05.222Z,101595.97
2022-11-29T17:56:32.176Z,101597.50
2022-11-29T17:59:00.766Z,101611.19
2022-11-29T18:01:30.718Z,101604.13
2022-11-29T18:03:59.802Z,101604.00
2022-11-29T18:06:29.386Z,101609.25
2022-11-29T18:08:58.477Z,101608.56
2022-11-29T18:11:45.304Z,101607.88
2022-11-29T18:14:17.084Z,101607.78
2022-11-29T18:16:45.415Z,101609.69
2022-11-29T18:19:14.911Z,101610.25
2022-11-29T18:21:41.414Z,101620.03
2022-11-29T18:24:09.726Z,101615.06
2022-11-29T18:26:38.113Z,101613.31
2022-11-29T18:29:06.139Z,101619.50
2022-11-29T18:31:34.871Z,101620.31
2022-11-29T18:34:03.247Z,101619.34
2022-11-29T18:36:33.211Z,101616.88
2022-11-29T18:39:03.462Z,101614.81
2022-11-29T18:41:30.952Z,101619.31
2022-11-29T18:44:08.141Z,101620.84
2022-11-29T18:46:37.239Z,101620.28
2022-11-29T18:49:06.150Z,101621.50
2022-11-29T18:51:33.329Z,101618.09
2022-11-29T18:54:00.649Z,101619.88
2022-11-29T18:56:29.481Z,101629.91
2022-11-29T18:58:58.832Z,101627.69
2022-11-29T19:01:27.534Z,101631.13
2022-11-29T19:03:57.039Z,101631.13
2022-11-29T19:06:28.907Z,101638.97
2022-11-29T19:08:58.431Z,101638.69
2022-11-29T19:11:27.607Z,101634.94
2022-11-29T19:13:57.506Z,101638.09
2022-11-29T19:16:25.317Z,101636.13
2022-11-29T19:18:53.724Z,101631.84
2022-11-29T19:21:22.327Z,101638.09
2022-11-29T19:23:53.776Z,101639.19
2022-11-29T19:26:21.540Z,101632.66
2022-11-29T19:28:48.404Z,101636.00
2022-11-29T19:31:16.935Z,101640.75
2022-11-29T19:33:45.024Z,101637.16
2022-11-29T19:36:23.176Z,101636.38
2022-11-29T19:38:53.719Z,101644.22
2022-11-29T19:41:26.565Z,101640.47
2022-11-29T19:43:53.883Z,101644.78
2022-11-29T19:46:22.694Z,101640.97
2022-11-29T19:48:51.379Z,101646.06
2022-11-29T19:51:17.991Z,101651.16
2022-11-29T19:53:45.863Z,101657.75
2022-11-29T19:56:14.808Z,101656.25
2022-11-29T19:58:41.571Z,101654.63
2022-11-29T20:01:16.651Z,101657.97
2022-11-29T20:03:43.541Z,101667.47
2022-11-29T20:06:10.238Z,101662.91
2022-11-29T20:08:37.672Z,101662.38
2022-11-29T20:11:08.837Z,101666.38
2022-11-29T20:13:36.183Z,101670.41
2022-11-29T20:16:11.641Z,101674.94
2022-11-29T20:18:41.812Z,101677.81
2022-11-29T20:21:15.373Z,101678.13
2022-11-29T20:23:42.323Z,101677.72
2022-11-29T20:26:17.876Z,101685.16
2022-11-29T20:28:45.227Z,101675.66
2022-11-29T20:31:18.209Z,101679.53
2022-11-29T20:33:46.321Z,101688.47
2022-11-29T20:36:18.635Z,101681.88
2022-11-29T20:39:00.155Z,101675.28
2022-11-29T20:41:48.787Z,101681.63
2022-11-29T20:44:20.457Z,101680.53
2022-11-29T20:46:47.274Z,101679.03
2022-11-29T20:49:15.189Z,101680.53
2022-11-29T20:51:49.504Z,101684.25
2022-11-29T20:54:19.083Z,101688.53
2022-11-29T20:56:45.616Z,101682.19
2022-11-29T20:59:12.078Z,101688.25
2022-11-29T21:01:38.574Z,101684.41
2022-11-29T21:04:05.024Z,101686.31
2022-11-29T21:06:34.303Z,101690.72
2022-11-29T21:09:00.714Z,101694.19
2022-11-29T21:11:27.140Z,101693.78
2022-11-29T21:13:53.836Z,101691.72
2022-11-29T21:16:27.620Z,101692.13
2022-11-29T21:18:58.796Z,101695.59
2022-11-29T21:21:42.677Z,101695.16
2022-11-29T21:24:36.031Z,101694.75
2022-11-29T21:27:03.559Z,101699.03
2022-11-29T21:29:30.348Z,101699.84
2022-11-29T21:31:57.014Z,101694.22
2022-11-29T21:34:23.479Z,101691.16
2022-11-29T21:36:58.317Z,101693.13
2022-11-29T21:39:33.188Z,101696.69
2022-11-29T21:41:59.683Z,101700.13
2022-11-29T21:44:26.157Z,101696.41
2022-11-29T21:46:52.667Z,101696.41
2022-11-29T21:49:19.184Z,101695.84
2022-11-29T21:51:45.539Z,101696.41
2022-11-29T21:54:11.949Z,101703.88
2022-11-29T21:56:41.291Z,101699.44
2022-11-29T21:59:07.701Z,101699.16
2022-11-29T22:01:34.285Z,101700.25
2022-11-29T22:04:01.087Z,101703.19
2022-11-29T22:06:29.202Z,101705.50
2022-11-29T22:08:55.749Z,101703.88
2022-11-29T22:11:33.996Z,101705.91
2022-11-29T22:14:18.787Z,101709.22
2022-11-29T22:16:47.045Z,101704.81
2022-11-29T22:19:16.322Z,101707.19
2022-11-29T22:21:44.780Z,101713.22
2022-11-29T22:24:13.722Z,101707.28
2022-11-29T22:26:41.113Z,101712.53
2022-11-29T22:29:07.567Z,101711.56
2022-11-29T22:31:35.674Z,101704.41
2022-11-29T22:34:02.200Z,101706.78
2022-11-29T22:36:28.648Z,101701.78
2022-11-29T22:38:55.129Z,101702.47
2022-11-29T22:41:21.534Z,101697.25
2022-11-29T22:43:48.011Z,101703.47
2022-11-29T22:46:20.206Z,101697.78
2022-11-29T22:48:49.139Z,101699.03
2022-11-29T22:51:18.311Z,101697.94
2022-11-29T22:53:55.539Z,101699.03
2022-11-29T22:56:23.787Z,101697.78
2022-11-29T22:58:50.417Z,101696.00
2022-11-29T23:01:19.240Z,101693.50
2022-11-29T23:03:54.420Z,101696.56
2022-11-29T23:06:22.069Z,101702.75
2022-11-29T23:08:49.814Z,101694.75
2022-11-29T23:11:21.878Z,101703.19
2022-11-29T23:13:48.525Z,101705.66
2022-11-29T23:16:17.525Z,101712.81
2022-11-29T23:18:45.570Z,101715.28
2022-11-29T23:21:21.030Z,101716.53
2022-11-29T23:23:54.504Z,101718.31
2022-11-29T23:26:24.076Z,101719.00
2022-11-29T23:28:51.121Z,101730.16
2022-11-29T23:31:17.789Z,101732.25
2022-11-29T23:33:44.454Z,101726.88
2022-11-29T23:36:12.620Z,101723.56
2022-11-29T23:38:39.860Z,101722.88
2022-11-29T23:41:07.587Z,101722.19
2022-11-29T23:43:36.770Z,101722.72
2022-11-29T23:46:21.193Z,101729.63
2022-11-29T23:48:48.396Z,101725.91
2022-11-29T23:51:15.733Z,101722.31
2022-11-29T23:53:42.494Z,101725.63
2022-11-29T23:56:14.593Z,101725.34
2022-11-29T23:58:42.226Z,101730.31
